Time;durP1;ratioP1;P1;durP2;ratioP2;P2;SDS_P1;SDS_P2;PMS_P1;PMS_P2;Temp;Humidity;BMP_temperature;BMP_pressure;BME280_temperature;BME280_humidity;BME280_pressure;Samples;Min_cycle;Max_cycle;Signal;HPM_P1;HPM_P2
2024/02/27 00:01:03;;;;;;;5.68;3.67;;;;;;;;;;5089642;28;20097;-61
2024/02/27 00:03:31;;;;;;;7.82;3.70;;;;;;;;;;5090309;28;20048;-61
2024/02/27 00:06:00;;;;;;;4.90;3.40;;;;;;;;;;5091057;28;20047;-61
2024/02/27 00:08:28;;;;;;;6.43;3.78;;;;;;;;;;5088277;28;20154;-63
2024/02/27 00:10:57;;;;;;;5.82;3.80;;;;;;;;;;5088383;28;20144;-62
2024/02/27 00:13:25;;;;;;;6.25;3.75;;;;;;;;;;5090312;28;20047;-61
2024/02/27 00:15:53;;;;;;;6.13;3.78;;;;;;;;;;5093040;28;20043;-61
2024/02/27 00:18:23;;;;;;;5.72;3.30;;;;;;;;;;5098560;28;20044;-61
2024/02/27 00:20:52;;;;;;;7.25;4.35;;;;;;;;;;5086129;28;20131;-62
2024/02/27 00:23:20;;;;;;;7.00;3.85;;;;;;;;;;5090183;28;20055;-63
2024/02/27 00:25:48;;;;;;;6.13;3.88;;;;;;;;;;5084014;28;20484;-62
2024/02/27 00:28:17;;;;;;;6.57;3.45;;;;;;;;;;5091695;28;20083;-61
2024/02/27 00:30:45;;;;;;;6.35;3.13;;;;;;;;;;5076504;28;20044;-61
2024/02/27 00:33:14;;;;;;;7.00;3.50;;;;;;;;;;5087982;28;20492;-61
2024/02/27 00:35:44;;;;;;;7.65;4.15;;;;;;;;;;5083180;28;20048;-66
2024/02/27 00:38:12;;;;;;;7.28;3.75;;;;;;;;;;5081966;28;20051;-68
2024/02/27 00:40:40;;;;;;;6.20;4.10;;;;;;;;;;5089646;28;20085;-60
2024/02/27 00:43:09;;;;;;;6.05;3.80;;;;;;;;;;5093591;28;20436;-62
2024/02/27 00:45:37;;;;;;;5.03;3.60;;;;;;;;;;5090913;28;20044;-61
2024/02/27 00:48:06;;;;;;;7.35;4.05;;;;;;;;;;5078225;28;20098;-63
2024/02/27 00:50:35;;;;;;;4.72;3.53;;;;;;;;;;5087178;28;20051;-61
2024/02/27 00:53:05;;;;;;;6.18;3.90;;;;;;;;;;5087618;28;20390;-66
2024/02/27 00:55:33;;;;;;;6.20;3.95;;;;;;;;;;5091146;28;20074;-62
2024/02/27 00:58:01;;;;;;;8.10;4.03;;;;;;;;;;5091988;28;20216;-65
2024/02/27 01:00:30;;;;;;;6.55;3.70;;;;;;;;;;5091019;28;20064;-62
2024/02/27 01:02:59;;;;;;;6.78;3.75;;;;;;;;;;5087377;28;20044;-62
2024/02/27 01:05:27;;;;;;;6.45;4.13;;;;;;;;;;5088830;28;20195;-62
2024/02/27 01:07:56;;;;;;;5.50;3.47;;;;;;;;;;5082060;28;20057;-61
2024/02/27 01:10:25;;;;;;;6.30;3.75;;;;;;;;;;5068679;28;20048;-61
2024/02/27 01:12:54;;;;;;;7.82;4.28;;;;;;;;;;5056009;28;20076;-62
2024/02/27 01:15:22;;;;;;;5.47;3.58;;;;;;;;;;5069002;28;20041;-62
2024/02/27 01:17:51;;;;;;;7.20;3.60;;;;;;;;;;5073240;28;20057;-61
2024/02/27 01:20:19;;;;;;;6.88;4.00;;;;;;;;;;5071802;28;20055;-61
2024/02/27 01:22:47;;;;;;;4.78;3.38;;;;;;;;;;5067279;28;20052;-61
2024/02/27 01:25:16;;;;;;;6.00;3.70;;;;;;;;;;5068210;28;20105;-62
2024/02/27 01:27:46;;;;;;;8.55;4.10;;;;;;;;;;5073201;28;20421;-65
2024/02/27 01:30:14;;;;;;;7.10;3.80;;;;;;;;;;5071966;28;20473;-61
2024/02/27 01:32:42;;;;;;;7.50;4.07;;;;;;;;;;5070209;28;20051;-62
2024/02/27 01:35:11;;;;;;;9.02;4.65;;;;;;;;;;5069015;28;20083;-61
2024/02/27 01:37:40;;;;;;;6.53;4.00;;;;;;;;;;5068521;28;20056;-63
2024/02/27 01:40:10;;;;;;;5.13;3.75;;;;;;;;;;5066292;28;20048;-62
2024/02/27 01:42:38;;;;;;;6.63;3.90;;;;;;;;;;5069906;28;20068;-60
2024/02/27 01:45:14;;;;;;;7.35;3.83;;;;;;;;;;5068774;28;20397;-61
2024/02/27 01:47:42;;;;;;;6.50;3.80;;;;;;;;;;5061970;28;20047;-63
2024/02/27 01:50:12;;;;;;;6.35;3.72;;;;;;;;;;5071821;28;20048;-63
2024/02/27 01:52:40;;;;;;;5.40;3.47;;;;;;;;;;5075419;28;20040;-61
2024/02/27 01:55:09;;;;;;;6.65;4.18;;;;;;;;;;5068883;28;20076;-61
2024/02/27 01:57:38;;;;;;;5.82;3.70;;;;;;;;;;5066734;28;20041;-61
2024/02/27 02:00:09;;;;;;;6.68;4.15;;;;;;;;;;5067375;28;20040;-63
2024/02/27 02:02:43;;;;;;;6.03;3.90;;;;;;;;;;5068965;28;20055;-63
2024/02/27 02:05:12;;;;;;;6.70;4.50;;;;;;;;;;5068589;28;20051;-62
2024/02/27 02:07:40;;;;;;;6.95;3.97;;;;;;;;;;5072325;28;20113;-61
2024/02/27 02:10:12;;;;;;;8.05;4.05;;;;;;;;;;5085324;28;20504;-62
2024/02/27 02:12:40;;;;;;;5.82;3.80;;;;;;;;;;5086791;28;20071;-61
2024/02/27 02:15:09;;;;;;;6.57;4.18;;;;;;;;;;5087483;28;20054;-63
2024/02/27 02:17:37;;;;;;;5.93;3.80;;;;;;;;;;5086132;28;20178;-62
2024/02/27 02:20:09;;;;;;;6.30;4.05;;;;;;;;;;5085455;28;20047;-62
2024/02/27 02:22:38;;;;;;;6.97;4.38;;;;;;;;;;5083562;28;20043;-63
2024/02/27 02:25:09;;;;;;;7.07;4.55;;;;;;;;;;5087662;28;20098;-63
2024/02/27 02:27:40;;;;;;;6.22;4.10;;;;;;;;;;5087269;28;20048;-62
2024/02/27 02:30:10;;;;;;;8.30;4.47;;;;;;;;;;5082733;28;20126;-62
2024/02/27 02:32:46;;;;;;;6.18;4.07;;;;;;;;;;5085169;28;20055;-61
2024/02/27 02:35:15;;;;;;;5.95;3.88;;;;;;;;;;5088012;28;20052;-63
2024/02/27 02:37:48;;;;;;;7.85;4.20;;;;;;;;;;5087924;28;20048;-66
2024/02/27 02:40:17;;;;;;;8.20;4.57;;;;;;;;;;5087441;28;20052;-64
2024/02/27 02:42:45;;;;;;;7.07;4.53;;;;;;;;;;5089193;28;20043;-62
2024/02/27 02:45:14;;;;;;;7.78;4.47;;;;;;;;;;5085953;28;20506;-61
2024/02/27 02:47:43;;;;;;;8.32;4.78;;;;;;;;;;5076691;28;20438;-64
2024/02/27 02:50:12;;;;;;;7.97;4.28;;;;;;;;;;5087230;28;20048;-63
2024/02/27 02:52:41;;;;;;;7.13;4.55;;;;;;;;;;5089259;28;20039;-63
2024/02/27 02:55:11;;;;;;;7.18;4.53;;;;;;;;;;5090800;28;20044;-61
2024/02/27 02:57:39;;;;;;;9.07;4.82;;;;;;;;;;5091827;28;20075;-63
2024/02/27 03:00:08;;;;;;;8.23;4.95;;;;;;;;;;5090549;28;20060;-62
2024/02/27 03:02:37;;;;;;;8.45;4.50;;;;;;;;;;5085990;28;20064;-62
2024/02/27 03:05:06;;;;;;;6.22;4.13;;;;;;;;;;5090724;28;20044;-63
2024/02/27 03:07:34;;;;;;;7.38;4.40;;;;;;;;;;5104397;28;20098;-61
2024/02/27 03:10:03;;;;;;;7.43;4.35;;;;;;;;;;5090460;28;20489;-62
2024/02/27 03:12:33;;;;;;;7.18;4.47;;;;;;;;;;5088450;28;20252;-61
2024/02/27 03:15:01;;;;;;;6.43;4.30;;;;;;;;;;5085568;28;20052;-64
2024/02/27 03:17:30;;;;;;;6.05;4.15;;;;;;;;;;5090923;28;20400;-62
2024/02/27 03:19:58;;;;;;;7.63;4.40;;;;;;;;;;5089796;28;20056;-61
2024/02/27 03:22:27;;;;;;;7.40;4.90;;;;;;;;;;5088229;28;20473;-62
2024/02/27 03:24:55;;;;;;;7.40;4.97;;;;;;;;;;5085568;28;20067;-62
2024/02/27 03:27:24;;;;;;;6.40;4.25;;;;;;;;;;5086813;28;20058;-61
2024/02/27 03:29:54;;;;;;;6.63;4.65;;;;;;;;;;5083066;28;20072;-62
2024/02/27 03:32:22;;;;;;;8.25;4.43;;;;;;;;;;5090877;28;20048;-60
2024/02/27 03:34:50;;;;;;;8.57;4.75;;;;;;;;;;5088386;28;20080;-63
2024/02/27 03:37:19;;;;;;;7.43;4.55;;;;;;;;;;5077959;28;20040;-64
2024/02/27 03:39:47;;;;;;;8.80;4.55;;;;;;;;;;5087863;28;20076;-63
2024/02/27 03:42:15;;;;;;;6.35;4.03;;;;;;;;;;5090781;28;20492;-62
2024/02/27 03:44:46;;;;;;;7.05;4.78;;;;;;;;;;5087366;28;20070;-61
2024/02/27 03:47:16;;;;;;;7.13;4.40;;;;;;;;;;5086965;28;20052;-61
2024/02/27 03:49:44;;;;;;;6.90;4.35;;;;;;;;;;5086926;28;20105;-63
2024/02/27 03:52:13;;;;;;;9.77;5.32;;;;;;;;;;5086562;28;20040;-64
2024/02/27 03:54:41;;;;;;;6.55;4.05;;;;;;;;;;5090034;28;20362;-62
2024/02/27 03:57:10;;;;;;;7.80;4.57;;;;;;;;;;5081596;28;20044;-61
2024/02/27 03:59:39;;;;;;;6.95;4.82;;;;;;;;;;5088412;28;20044;-62
2024/02/27 04:02:07;;;;;;;8.15;5.00;;;;;;;;;;5089939;28;20048;-63
2024/02/27 04:04:37;;;;;;;8.63;4.93;;;;;;;;;;5090518;28;20044;-63
2024/02/27 04:07:06;;;;;;;6.72;4.57;;;;;;;;;;5090238;28;20040;-62
2024/02/27 04:09:34;;;;;;;8.77;4.80;;;;;;;;;;5088783;28;20050;-61
2024/02/27 04:12:03;;;;;;;8.85;5.28;;;;;;;;;;5091671;28;20334;-62
2024/02/27 04:14:31;;;;;;;9.85;5.45;;;;;;;;;;5089535;28;20048;-64
2024/02/27 04:17:01;;;;;;;8.80;4.55;;;;;;;;;;5090329;28;20051;-63
2024/02/27 04:19:29;;;;;;;8.40;4.68;;;;;;;;;;5089695;28;20124;-61
2024/02/27 04:21:59;;;;;;;6.85;4.40;;;;;;;;;;5097361;28;20446;-61
2024/02/27 04:24:27;;;;;;;8.13;4.60;;;;;;;;;;5090152;28;20040;-61
2024/02/27 04:26:56;;;;;;;7.40;4.90;;;;;;;;;;5093242;28;20048;-62
2024/02/27 04:29:24;;;;;;;6.82;4.28;;;;;;;;;;5088063;28;20440;-62
2024/02/27 04:31:52;;;;;;;8.98;4.75;;;;;;;;;;5088943;28;20495;-63
2024/02/27 04:34:21;;;;;;;8.05;5.10;;;;;;;;;;5090514;28;20045;-60
2024/02/27 04:36:49;;;;;;;8.50;5.18;;;;;;;;;;5098422;28;20051;-62
2024/02/27 04:39:19;;;;;;;9.63;5.53;;;;;;;;;;5097093;28;21103;-63
2024/02/27 04:41:48;;;;;;;9.27;5.28;;;;;;;;;;5089322;28;20060;-61
2024/02/27 04:44:16;;;;;;;8.30;4.85;;;;;;;;;;5089114;28;20489;-64
2024/02/27 04:46:44;;;;;;;9.38;5.43;;;;;;;;;;5089643;28;20040;-61
2024/02/27 04:49:13;;;;;;;8.80;4.75;;;;;;;;;;5088630;28;20215;-61
2024/02/27 04:51:42;;;;;;;8.48;4.93;;;;;;;;;;5089571;28;20457;-62
2024/02/27 04:54:10;;;;;;;8.00;5.35;;;;;;;;;;5089113;28;20040;-63
2024/02/27 04:56:43;;;;;;;8.23;5.00;;;;;;;;;;5089820;28;20436;-61
2024/02/27 04:59:11;;;;;;;7.43;4.82;;;;;;;;;;5093019;28;20051;-62
2024/02/27 05:01:40;;;;;;;7.18;4.93;;;;;;;;;;5091958;28;20101;-60
2024/02/27 05:04:09;;;;;;;7.55;4.43;;;;;;;;;;5088671;28;20056;-61
2024/02/27 05:06:37;;;;;;;9.93;4.53;;;;;;;;;;5087396;28;20047;-63
2024/02/27 05:09:05;;;;;;;7.88;4.95;;;;;;;;;;5087085;28;20102;-62
2024/02/27 05:11:34;;;;;;;9.05;5.15;;;;;;;;;;5091143;28;20043;-65
2024/02/27 05:14:03;;;;;;;10.43;5.65;;;;;;;;;;5085391;28;20097;-61
2024/02/27 05:16:32;;;;;;;9.07;5.45;;;;;;;;;;5096509;28;20091;-62
2024/02/27 05:19:00;;;;;;;8.00;4.85;;;;;;;;;;5088233;28;20563;-61
2024/02/27 05:21:29;;;;;;;8.65;5.10;;;;;;;;;;5090231;28;20536;-64
2024/02/27 05:23:57;;;;;;;10.00;5.82;;;;;;;;;;5087946;28;20055;-61
2024/02/27 05:26:26;;;;;;;10.07;4.85;;;;;;;;;;5089829;28;20091;-60
2024/02/27 05:28:55;;;;;;;8.82;4.68;;;;;;;;;;5086495;28;20048;-61
2024/02/27 05:31:26;;;;;;;9.52;5.30;;;;;;;;;;5085516;28;20044;-63
2024/02/27 05:33:54;;;;;;;8.70;5.20;;;;;;;;;;5084644;28;20040;-61
2024/02/27 05:36:23;;;;;;;9.73;5.43;;;;;;;;;;5088767;28;20048;-60
2024/02/27 05:38:53;;;;;;;10.43;6.05;;;;;;;;;;5089618;28;20056;-61
2024/02/27 05:41:21;;;;;;;11.98;5.70;;;;;;;;;;5089846;28;20112;-64
2024/02/27 05:43:50;;;;;;;11.07;5.40;;;;;;;;;;5087696;28;20464;-62
2024/02/27 05:46:18;;;;;;;11.35;5.97;;;;;;;;;;5087505;28;21628;-67
2024/02/27 05:48:48;;;;;;;9.50;5.90;;;;;;;;;;5088099;28;20142;-62
2024/02/27 05:51:19;;;;;;;10.48;6.13;;;;;;;;;;5087140;28;20132;-63
2024/02/27 05:53:48;;;;;;;11.18;5.30;;;;;;;;;;5090611;28;20122;-61
2024/02/27 05:56:20;;;;;;;9.52;5.47;;;;;;;;;;5091632;28;20425;-63
2024/02/27 05:58:49;;;;;;;13.00;6.72;;;;;;;;;;5086482;28;20492;-61
2024/02/27 06:01:18;;;;;;;10.55;6.25;;;;;;;;;;5089420;28;20430;-61
2024/02/27 06:03:48;;;;;;;10.57;5.82;;;;;;;;;;5088803;28;20140;-60
2024/02/27 06:06:16;;;;;;;14.07;6.40;;;;;;;;;;5087324;28;20048;-62
2024/02/27 06:08:45;;;;;;;10.18;6.15;;;;;;;;;;5087785;28;20054;-60
2024/02/27 06:11:13;;;;;;;11.90;6.10;;;;;;;;;;5086753;28;20048;-63
2024/02/27 06:13:44;;;;;;;10.60;5.88;;;;;;;;;;5083316;28;20550;-61
2024/02/27 06:16:12;;;;;;;10.60;5.43;;;;;;;;;;5089790;28;20051;-60
2024/02/27 06:18:42;;;;;;;13.88;6.18;;;;;;;;;;5089034;28;20095;-61
2024/02/27 06:24:00;;;;;;;12.20;6.13;;;;;;;;;;5085682;28;20071;-60
2024/02/27 06:26:29;;;;;;;13.63;6.97;;;;;;;;;;5087191;28;20353;-62
2024/02/27 06:28:57;;;;;;;11.32;6.93;;;;;;;;;;5092880;28;20040;-61
2024/02/27 06:31:26;;;;;;;11.80;5.90;;;;;;;;;;5086108;28;20059;-62
2024/02/27 06:33:54;;;;;;;14.02;6.70;;;;;;;;;;5091966;28;20550;-61
2024/02/27 06:36:24;;;;;;;11.85;6.82;;;;;;;;;;5087308;28;20064;-60
2024/02/27 06:38:55;;;;;;;11.57;7.20;;;;;;;;;;5091026;28;20052;-60
2024/02/27 06:41:24;;;;;;;12.65;6.85;;;;;;;;;;5090603;28;20234;-60
2024/02/27 06:43:53;;;;;;;11.57;6.47;;;;;;;;;;5096761;28;20076;-61
2024/02/27 06:46:21;;;;;;;13.57;6.95;;;;;;;;;;5092613;28;20048;-62
2024/02/27 06:48:50;;;;;;;13.45;6.85;;;;;;;;;;5091574;28;20044;-60
2024/02/27 06:51:25;;;;;;;16.65;7.30;;;;;;;;;;5091677;28;20065;-60
2024/02/27 06:53:54;;;;;;;12.55;6.90;;;;;;;;;;5090080;28;20071;-62
2024/02/27 06:56:23;;;;;;;16.17;8.13;;;;;;;;;;5092491;28;20063;-62
2024/02/27 06:58:53;;;;;;;13.13;6.28;;;;;;;;;;5093652;28;20036;-61
2024/02/27 07:01:23;;;;;;;15.10;7.43;;;;;;;;;;5087037;28;20063;-60
2024/02/27 07:03:52;;;;;;;17.52;7.82;;;;;;;;;;5093224;28;20051;-60
2024/02/27 07:06:21;;;;;;;13.80;7.60;;;;;;;;;;5091849;28;20250;-60
2024/02/27 07:08:51;;;;;;;12.02;7.05;;;;;;;;;;5089116;28;20321;-62
2024/02/27 07:11:20;;;;;;;13.25;7.40;;;;;;;;;;5089747;28;20047;-62
2024/02/27 07:13:48;;;;;;;16.98;7.50;;;;;;;;;;5092486;28;20083;-62
2024/02/27 07:16:17;;;;;;;12.90;7.35;;;;;;;;;;5091742;28;20052;-61
2024/02/27 07:18:45;;;;;;;13.40;7.45;;;;;;;;;;5092092;28;20079;-61
2024/02/27 07:21:14;;;;;;;15.90;8.25;;;;;;;;;;5087149;28;20479;-62
2024/02/27 07:23:45;;;;;;;14.40;7.13;;;;;;;;;;5087021;28;20067;-61
2024/02/27 07:26:15;;;;;;;12.95;7.13;;;;;;;;;;5092694;28;20043;-61
2024/02/27 07:28:43;;;;;;;14.38;7.90;;;;;;;;;;5090122;28;20102;-60
2024/02/27 07:31:14;;;;;;;14.93;8.02;;;;;;;;;;5091202;28;20048;-62
2024/02/27 07:33:43;;;;;;;15.07;8.15;;;;;;;;;;5089849;28;20075;-66
2024/02/27 07:36:11;;;;;;;16.83;8.55;;;;;;;;;;5089481;28;20546;-61
2024/02/27 07:38:40;;;;;;;15.20;7.45;;;;;;;;;;5088145;28;20052;-61
2024/02/27 07:41:10;;;;;;;14.88;7.75;;;;;;;;;;5092219;28;20056;-62
2024/02/27 07:43:40;;;;;;;15.45;7.25;;;;;;;;;;5091154;28;20070;-63
2024/02/27 07:46:08;;;;;;;14.02;7.13;;;;;;;;;;5090788;28;20048;-60
2024/02/27 07:48:37;;;;;;;16.83;8.35;;;;;;;;;;5090915;28;20082;-62
2024/02/27 07:51:05;;;;;;;16.30;8.50;;;;;;;;;;5078592;28;20041;-61
2024/02/27 07:53:34;;;;;;;14.00;7.60;;;;;;;;;;5092925;28;20052;-60
2024/02/27 07:56:02;;;;;;;15.82;8.73;;;;;;;;;;5095644;28;20043;-61
2024/02/27 07:58:31;;;;;;;17.35;8.63;;;;;;;;;;5090619;28;20048;-63
2024/02/27 08:01:00;;;;;;;12.50;7.68;;;;;;;;;;5088445;28;20052;-62
2024/02/27 08:03:29;;;;;;;15.55;8.55;;;;;;;;;;5091891;28;20097;-61
2024/02/27 08:05:58;;;;;;;15.93;8.07;;;;;;;;;;5103181;28;20048;-61
2024/02/27 08:08:27;;;;;;;15.00;8.15;;;;;;;;;;5080471;28;20045;-66
2024/02/27 08:10:56;;;;;;;14.82;8.40;;;;;;;;;;5070156;28;20048;-62
2024/02/27 08:13:24;;;;;;;14.43;8.18;;;;;;;;;;5068700;28;20052;-62
2024/02/27 08:15:53;;;;;;;14.93;7.60;;;;;;;;;;5082764;28;20048;-61
2024/02/27 08:18:24;;;;;;;16.23;8.07;;;;;;;;;;5079131;28;20048;-61
2024/02/27 08:20:53;;;;;;;16.75;7.85;;;;;;;;;;5078599;28;20049;-63
2024/02/27 08:23:25;;;;;;;15.93;8.07;;;;;;;;;;5070001;28;20150;-64
2024/02/27 08:25:53;;;;;;;15.32;8.75;;;;;;;;;;5083494;28;20362;-62
2024/02/27 08:28:22;;;;;;;17.42;7.88;;;;;;;;;;5069982;28;20639;-61
2024/02/27 08:30:50;;;;;;;15.73;8.05;;;;;;;;;;5078019;28;20101;-62
2024/02/27 08:33:19;;;;;;;16.15;8.15;;;;;;;;;;5083195;28;20093;-64
2024/02/27 08:35:49;;;;;;;17.48;8.35;;;;;;;;;;5069515;28;20420;-63
2024/02/27 08:38:17;;;;;;;15.27;8.07;;;;;;;;;;5068064;28;20076;-62
2024/02/27 08:40:46;;;;;;;18.77;8.20;;;;;;;;;;5069609;28;20464;-61
2024/02/27 08:43:15;;;;;;;18.17;8.30;;;;;;;;;;5085332;28;20466;-66
2024/02/27 08:45:43;;;;;;;15.45;8.02;;;;;;;;;;5070863;28;20098;-62
2024/02/27 08:48:12;;;;;;;14.68;7.72;;;;;;;;;;5068979;28;20048;-63
2024/02/27 08:50:43;;;;;;;15.05;8.00;;;;;;;;;;5081270;28;20044;-63
2024/02/27 08:53:13;;;;;;;18.70;9.15;;;;;;;;;;5073347;28;20482;-60
2024/02/27 08:55:42;;;;;;;13.05;7.40;;;;;;;;;;5071160;28;20517;-61
2024/02/27 08:58:10;;;;;;;14.20;7.70;;;;;;;;;;5084916;28;20550;-61
2024/02/27 09:00:39;;;;;;;12.95;6.68;;;;;;;;;;5070664;28;20584;-62
2024/02/27 09:03:08;;;;;;;16.80;8.20;;;;;;;;;;5064292;28;20452;-62
2024/02/27 09:05:37;;;;;;;17.30;8.02;;;;;;;;;;5070041;28;20152;-63
2024/02/27 09:08:05;;;;;;;15.90;8.52;;;;;;;;;;5083832;28;20055;-62
2024/02/27 09:10:35;;;;;;;14.82;7.55;;;;;;;;;;5088449;28;20044;-62
2024/02/27 09:13:04;;;;;;;18.02;8.77;;;;;;;;;;5089586;28;20344;-62
2024/02/27 09:15:35;;;;;;;16.33;7.65;;;;;;;;;;5088957;28;20048;-62
2024/02/27 09:18:04;;;;;;;15.32;8.02;;;;;;;;;;5089627;28;20079;-61
2024/02/27 09:20:32;;;;;;;14.73;7.63;;;;;;;;;;5078508;28;20085;-62
2024/02/27 09:23:03;;;;;;;15.68;8.63;;;;;;;;;;5089445;28;20501;-62
2024/02/27 09:25:31;;;;;;;14.25;8.35;;;;;;;;;;5088471;28;20097;-63
2024/02/27 09:28:01;;;;;;;16.95;7.57;;;;;;;;;;5089290;28;20459;-62
2024/02/27 09:30:30;;;;;;;14.45;7.80;;;;;;;;;;5083858;28;20500;-62
2024/02/27 09:32:58;;;;;;;14.52;7.97;;;;;;;;;;5089409;28;20063;-62
2024/02/27 09:35:26;;;;;;;15.45;8.38;;;;;;;;;;5088997;28;20048;-62
2024/02/27 09:37:55;;;;;;;16.95;7.65;;;;;;;;;;5086855;28;20050;-62
2024/02/27 09:40:26;;;;;;;13.93;6.80;;;;;;;;;;5085737;28;20056;-62
2024/02/27 09:42:57;;;;;;;14.00;7.70;;;;;;;;;;5088298;28;20048;-63
2024/02/27 09:45:26;;;;;;;15.70;7.28;;;;;;;;;;5087277;28;20400;-62
2024/02/27 09:47:55;;;;;;;13.13;6.93;;;;;;;;;;5084408;28;20040;-63
2024/02/27 09:50:24;;;;;;;11.95;7.32;;;;;;;;;;5085670;28;20122;-63
2024/02/27 09:52:52;;;;;;;12.60;6.65;;;;;;;;;;5088375;28;20097;-63
2024/02/27 09:55:23;;;;;;;11.43;6.47;;;;;;;;;;5087691;28;20043;-63
2024/02/27 09:57:52;;;;;;;14.20;6.70;;;;;;;;;;5087068;28;20048;-62
2024/02/27 10:00:21;;;;;;;14.43;6.43;;;;;;;;;;5082285;28;20052;-62
2024/02/27 10:02:51;;;;;;;12.40;6.35;;;;;;;;;;5079209;28;20141;-63
2024/02/27 10:05:21;;;;;;;10.93;6.72;;;;;;;;;;5088450;28;20064;-63
2024/02/27 10:07:51;;;;;;;12.52;6.40;;;;;;;;;;5086677;28;20056;-63
2024/02/27 10:10:20;;;;;;;12.35;6.70;;;;;;;;;;5083529;28;20063;-62
2024/02/27 10:12:49;;;;;;;12.63;6.60;;;;;;;;;;5086255;28;20469;-63
2024/02/27 10:15:17;;;;;;;11.23;6.45;;;;;;;;;;5086608;28;20047;-63
2024/02/27 10:17:47;;;;;;;13.57;6.35;;;;;;;;;;5087608;28;20067;-64
2024/02/27 10:20:19;;;;;;;11.40;6.57;;;;;;;;;;5087054;28;20048;-66
2024/02/27 10:22:48;;;;;;;13.10;7.50;;;;;;;;;;5089538;28;20070;-63
2024/02/27 10:25:18;;;;;;;11.05;6.38;;;;;;;;;;5086561;28;20052;-63
2024/02/27 10:27:47;;;;;;;10.07;6.30;;;;;;;;;;5088255;28;20067;-63
2024/02/27 10:30:15;;;;;;;14.30;7.40;;;;;;;;;;5087976;28;20048;-63
2024/02/27 10:32:45;;;;;;;12.55;6.97;;;;;;;;;;5085200;28;20040;-63
2024/02/27 10:35:14;;;;;;;12.07;5.95;;;;;;;;;;5085420;28;20051;-63
2024/02/27 10:37:46;;;;;;;13.65;7.03;;;;;;;;;;5087249;28;20126;-63
2024/02/27 10:40:14;;;;;;;10.55;6.28;;;;;;;;;;5084407;28;20085;-64
2024/02/27 10:42:43;;;;;;;11.48;6.07;;;;;;;;;;5088768;28;20036;-63
2024/02/27 10:45:12;;;;;;;10.05;5.75;;;;;;;;;;5087290;28;20113;-62
2024/02/27 10:47:43;;;;;;;10.48;6.05;;;;;;;;;;5088685;28;20078;-63
2024/02/27 10:50:15;;;;;;;10.77;6.13;;;;;;;;;;5082929;28;20139;-63
2024/02/27 10:52:46;;;;;;;10.65;6.32;;;;;;;;;;5087709;28;20040;-63
2024/02/27 10:55:16;;;;;;;10.15;5.97;;;;;;;;;;5088759;28;20164;-63
2024/02/27 10:57:44;;;;;;;10.55;6.00;;;;;;;;;;5098747;28;20052;-63
2024/02/27 11:00:14;;;;;;;9.98;5.82;;;;;;;;;;5087264;28;20508;-62
2024/02/27 11:02:50;;;;;;;10.82;6.32;;;;;;;;;;5085918;28;20044;-63
2024/02/27 11:05:19;;;;;;;13.98;6.07;;;;;;;;;;5087932;28;20052;-62
2024/02/27 11:07:49;;;;;;;11.65;6.55;;;;;;;;;;5081237;28;20053;-62
2024/02/27 11:10:19;;;;;;;9.70;5.80;;;;;;;;;;5062356;28;20103;-62
2024/02/27 11:12:49;;;;;;;12.02;6.22;;;;;;;;;;5066912;28;20053;-63
2024/02/27 11:15:19;;;;;;;13.00;7.00;;;;;;;;;;5070461;28;20180;-63
2024/02/27 11:17:50;;;;;;;11.02;6.43;;;;;;;;;;5069747;28;20135;-63
2024/02/27 11:20:19;;;;;;;9.65;5.95;;;;;;;;;;5067325;28;20044;-63
2024/02/27 11:22:49;;;;;;;10.57;6.35;;;;;;;;;;5070596;28;20047;-63
2024/02/27 11:25:18;;;;;;;12.18;6.15;;;;;;;;;;5070182;28;20068;-62
2024/02/27 11:27:47;;;;;;;13.25;7.13;;;;;;;;;;5070819;28;20048;-63
2024/02/27 11:30:19;;;;;;;12.10;6.40;;;;;;;;;;5068074;28;20126;-63
2024/02/27 11:32:48;;;;;;;11.98;6.25;;;;;;;;;;5066897;28;20079;-62
2024/02/27 11:35:17;;;;;;;10.73;6.38;;;;;;;;;;5070584;28;20063;-65
2024/02/27 11:37:46;;;;;;;14.98;6.43;;;;;;;;;;5071340;28;20048;-63
2024/02/27 11:40:16;;;;;;;14.18;6.68;;;;;;;;;;5068544;28;20041;-63
2024/02/27 11:42:45;;;;;;;10.05;6.43;;;;;;;;;;5082467;28;20518;-64
2024/02/27 11:45:14;;;;;;;11.77;6.88;;;;;;;;;;5073348;28;20569;-63
2024/02/27 11:47:44;;;;;;;10.18;5.90;;;;;;;;;;5076384;28;20052;-63
2024/02/27 11:50:13;;;;;;;12.55;6.68;;;;;;;;;;5067775;28;20082;-63
2024/02/27 11:52:46;;;;;;;11.05;6.50;;;;;;;;;;5067000;28;20048;-63
2024/02/27 11:55:16;;;;;;;10.50;6.07;;;;;;;;;;5070907;28;20059;-63
2024/02/27 11:57:45;;;;;;;10.38;6.40;;;;;;;;;;5072045;28;20513;-62
2024/02/27 12:00:14;;;;;;;12.82;5.93;;;;;;;;;;5073336;28;20412;-63
2024/02/27 12:02:47;;;;;;;8.77;5.38;;;;;;;;;;5071115;28;20074;-63
2024/02/27 12:05:18;;;;;;;10.82;5.40;;;;;;;;;;5070111;28;20048;-64
2024/02/27 12:07:46;;;;;;;9.90;5.28;;;;;;;;;;5064410;28;20061;-64
2024/02/27 12:10:16;;;;;;;11.80;6.05;;;;;;;;;;5080361;28;20101;-63
2024/02/27 12:12:45;;;;;;;9.30;5.30;;;;;;;;;;5065135;28;20040;-64
2024/02/27 12:15:14;;;;;;;12.55;6.60;;;;;;;;;;5081133;28;20041;-62
2024/02/27 12:17:42;;;;;;;12.10;6.35;;;;;;;;;;5077247;28;20156;-62
2024/02/27 12:20:11;;;;;;;10.32;6.05;;;;;;;;;;5076200;28;20056;-63
2024/02/27 12:22:41;;;;;;;10.27;6.15;;;;;;;;;;5070187;28;20049;-63
2024/02/27 12:25:09;;;;;;;16.35;6.45;;;;;;;;;;5081397;28;20135;-63
2024/02/27 12:27:40;;;;;;;11.32;6.15;;;;;;;;;;5082341;28;20044;-62
2024/02/27 12:30:10;;;;;;;10.07;5.25;;;;;;;;;;5084839;28;20044;-63
2024/02/27 12:32:40;;;;;;;9.48;5.38;;;;;;;;;;5074540;28;20044;-63
2024/02/27 12:35:09;;;;;;;7.38;4.72;;;;;;;;;;5080248;28;20048;-62
2024/02/27 12:37:39;;;;;;;8.85;4.75;;;;;;;;;;5080400;28;20501;-64
2024/02/27 12:40:10;;;;;;;9.15;5.00;;;;;;;;;;5070058;28;20162;-64
2024/02/27 12:42:41;;;;;;;8.82;5.15;;;;;;;;;;5078142;28;20055;-65
2024/02/27 12:45:11;;;;;;;9.13;5.43;;;;;;;;;;5075245;28;20414;-63
2024/02/27 12:47:40;;;;;;;13.27;6.30;;;;;;;;;;5074112;28;20133;-63
2024/02/27 12:50:09;;;;;;;8.77;5.55;;;;;;;;;;5072958;28;20365;-64
2024/02/27 12:52:38;;;;;;;8.73;5.47;;;;;;;;;;5060608;28;20075;-65
2024/02/27 12:55:08;;;;;;;11.15;6.30;;;;;;;;;;5071461;28;20130;-63
2024/02/27 12:57:37;;;;;;;10.93;5.90;;;;;;;;;;5079286;28;20048;-63
2024/02/27 13:00:10;;;;;;;8.75;4.82;;;;;;;;;;5077498;28;20131;-63
2024/02/27 13:02:38;;;;;;;10.13;5.57;;;;;;;;;;5072618;28;20182;-63
2024/02/27 13:05:08;;;;;;;10.88;5.43;;;;;;;;;;5071684;28;20059;-63
2024/02/27 13:07:38;;;;;;;11.35;5.45;;;;;;;;;;5068522;28;20508;-64
2024/02/27 13:10:08;;;;;;;12.30;5.70;;;;;;;;;;5068173;28;20087;-63
2024/02/27 13:12:36;;;;;;;10.13;5.68;;;;;;;;;;5071563;28;20090;-63
2024/02/27 13:15:05;;;;;;;9.27;5.40;;;;;;;;;;5067896;28;20706;-64
2024/02/27 13:17:35;;;;;;;8.25;5.00;;;;;;;;;;5068595;28;20158;-65
2024/02/27 13:20:03;;;;;;;9.13;5.60;;;;;;;;;;5067663;28;20072;-64
2024/02/27 13:22:32;;;;;;;11.05;5.88;;;;;;;;;;5067197;28;20048;-63
2024/02/27 13:25:00;;;;;;;11.85;6.05;;;;;;;;;;5069857;28;20049;-64
2024/02/27 13:27:29;;;;;;;10.07;5.47;;;;;;;;;;5067244;28;20127;-64
2024/02/27 13:29:57;;;;;;;8.55;5.45;;;;;;;;;;5067711;28;20045;-64
2024/02/27 13:32:25;;;;;;;9.50;5.68;;;;;;;;;;5067204;28;20036;-64
2024/02/27 13:34:55;;;;;;;12.15;6.25;;;;;;;;;;5066933;28;20081;-65
2024/02/27 13:37:24;;;;;;;11.75;5.75;;;;;;;;;;5069695;28;20044;-63
2024/02/27 13:39:52;;;;;;;9.25;5.57;;;;;;;;;;5070076;28;20060;-64
2024/02/27 13:42:21;;;;;;;10.40;5.95;;;;;;;;;;5065214;28;20049;-63
2024/02/27 13:44:49;;;;;;;10.48;5.97;;;;;;;;;;5071092;28;20049;-64
2024/02/27 13:47:19;;;;;;;11.70;5.82;;;;;;;;;;5069662;28;20076;-64
2024/02/27 13:49:49;;;;;;;10.15;5.70;;;;;;;;;;5068845;28;20048;-64
2024/02/27 13:52:19;;;;;;;9.98;5.22;;;;;;;;;;5060485;28;20048;-64
2024/02/27 13:54:47;;;;;;;9.50;5.50;;;;;;;;;;5069881;28;20681;-64
2024/02/27 13:57:16;;;;;;;11.93;5.78;;;;;;;;;;5068042;28;20501;-64
2024/02/27 13:59:44;;;;;;;12.32;6.30;;;;;;;;;;5069096;28;20047;-63
2024/02/27 14:02:13;;;;;;;9.95;6.00;;;;;;;;;;5065221;28;20068;-64
2024/02/27 14:04:41;;;;;;;10.80;6.15;;;;;;;;;;5069123;28;20527;-64
2024/02/27 14:07:10;;;;;;;10.90;5.97;;;;;;;;;;5072751;28;20115;-64
2024/02/27 14:09:39;;;;;;;11.15;6.22;;;;;;;;;;5082586;28;20047;-64
2024/02/27 14:12:10;;;;;;;10.80;6.75;;;;;;;;;;5089294;28;20612;-64
2024/02/27 14:14:40;;;;;;;10.38;5.97;;;;;;;;;;5090117;28;20064;-65
2024/02/27 14:17:08;;;;;;;11.82;5.90;;;;;;;;;;5089292;28;20047;-64
2024/02/27 14:19:37;;;;;;;13.70;6.00;;;;;;;;;;5088606;28;20075;-65
2024/02/27 14:22:05;;;;;;;12.73;6.38;;;;;;;;;;5091871;28;20528;-64
2024/02/27 14:24:34;;;;;;;13.18;6.07;;;;;;;;;;5087475;28;20554;-63
2024/02/27 14:27:04;;;;;;;13.18;6.35;;;;;;;;;;5090455;28;20051;-64
2024/02/27 14:29:33;;;;;;;11.07;6.47;;;;;;;;;;5079301;28;20493;-64
2024/02/27 14:32:02;;;;;;;11.48;6.55;;;;;;;;;;5085034;28;20044;-64
2024/02/27 14:34:30;;;;;;;12.85;6.40;;;;;;;;;;5088418;28;20044;-64
2024/02/27 14:36:59;;;;;;;9.80;5.72;;;;;;;;;;5088602;28;20052;-65
2024/02/27 14:39:27;;;;;;;11.25;6.10;;;;;;;;;;5088310;28;20056;-64
2024/02/27 14:41:56;;;;;;;11.80;6.05;;;;;;;;;;5086921;28;20129;-65
2024/02/27 14:44:26;;;;;;;12.23;6.43;;;;;;;;;;5087745;28;20232;-63
2024/02/27 14:46:54;;;;;;;9.90;5.90;;;;;;;;;;5091257;28;20401;-64
2024/02/27 14:49:23;;;;;;;11.80;6.47;;;;;;;;;;5092415;28;20490;-63